Startpagina
METAR-TAF:

METAR-TAF

Vliegvelden :

José Martí International Airport

Havana, Cuba

breedte: 22-59N, lengte: 082-24W, hoogte: 59 m

Actueel weer

Dit bericht is 29 minuten geleden gemaakt, om 05:55 UTC
Wind 3 kt uit het oostzuidoosten
Temperatuur 22°C
Vochtigheid 100%
Druk 1016 hPa
Zicht: 9000 m
Weinig wolken op 3000 ft

METAR: MUHA 220555Z 11003KT 9000 FEW030 22/22 Q1016

Tijdstip: 02:24 (06:24 UTC)

Verwachting

Dit bericht is 1 uur en het 24 minuten geleden gemaakt, om 05:00 UTC
Verwachting geldig van 22 om 06 UTC tot 23 om 06 UTC
Wind 3 kt uit variabele richting
Zicht: 9000 m
Weinig wolken op 3000 ft
Wijzigt naar
van 22 om 15 UTC tot 22 om 16 UTC
Wind 10 kt uit het noordoosten
Tijdelijke
van 22 om 20 UTC tot 22 om 23 UTC
Gebroken wolken op 2500 ft
Wijzigt naar
van 23 om 02 UTC tot 23 om 04 UTC
Wind 3 kt uit variabele richting

TAF: MUHA 220500Z 2206/2306 VRB03KT 9000 FEW030 BECMG 2215/2216 05010KT TEMPO 2220/2223 BKN025 BECMG 2302/2304 VRB03KT

Waarnemingen en weersverwachtingen van meer dan 4000 vliegvelden (METAR en TAF).

De beschikbare stations zijn de gele en rode punten op de kaart.

Ga met uw muis naar het station om de naam te zien.

Klik dan om waarnemingen en weersverwachtingen te zien.

kaart wijzigen: klik op de groene knoppen met een zwart kruis om in te zoomen, op de groene knop met een streepje om uit te zoomen of op de groene pijlen voor aangrenzende kaarten.


METAR-TAF: